sensor_id;sensor_type;location;lat;lon;timestamp;pressure;altitude;pressure_sealevel;temperature;humidity
36788;BME280;22738;45.560;9.434;2023-02-11T00:05:17;101922.59;;;-0.80;100.00
36788;BME280;22738;45.560;9.434;2023-02-11T00:11:58;101925.88;;;-0.87;100.00
36788;BME280;22738;45.560;9.434;2023-02-11T00:18:39;101912.50;;;-0.75;100.00
36788;BME280;22738;45.560;9.434;2023-02-11T00:25:20;101915.94;;;-0.72;100.00
36788;BME280;22738;45.560;9.434;2023-02-11T00:32:01;101907.47;;;-0.69;100.00
36788;BME280;22738;45.560;9.434;2023-02-11T00:38:45;101910.75;;;-0.76;100.00
36788;BME280;22738;45.560;9.434;2023-02-11T00:45:26;101900.19;;;-1.00;100.00
36788;BME280;22738;45.560;9.434;2023-02-11T00:52:09;101906.50;;;-0.77;100.00
36788;BME280;22738;45.560;9.434;2023-02-11T00:58:50;101896.28;;;-0.80;100.00
36788;BME280;22738;45.560;9.434;2023-02-11T01:05:31;101892.94;;;-0.76;100.00
36788;BME280;22738;45.560;9.434;2023-02-11T01:12:12;101893.69;;;-0.82;100.00
36788;BME280;22738;45.560;9.434;2023-02-11T01:18:55;101888.34;;;-0.98;100.00
36788;BME280;22738;45.560;9.434;2023-02-11T01:25:36;101891.66;;;-1.04;100.00
36788;BME280;22738;45.560;9.434;2023-02-11T01:32:18;101883.94;;;-1.08;100.00
36788;BME280;22738;45.560;9.434;2023-02-11T01:38:59;101884.06;;;-1.02;100.00
36788;BME280;22738;45.560;9.434;2023-02-11T01:52:32;101870.31;;;-1.12;100.00
36788;BME280;22738;45.560;9.434;2023-02-11T01:59:30;101860.81;;;-1.22;100.00
36788;BME280;22738;45.560;9.434;2023-02-11T02:06:21;101855.41;;;-1.41;100.00
36788;BME280;22738;45.560;9.434;2023-02-11T02:13:04;101850.41;;;-1.37;100.00
36788;BME280;22738;45.560;9.434;2023-02-11T02:20:11;101837.31;;;-1.57;100.00
36788;BME280;22738;45.560;9.434;2023-02-11T02:34:08;101822.66;;;-1.23;100.00
36788;BME280;22738;45.560;9.434;2023-02-11T02:40:58;101831.06;;;-1.27;100.00
36788;BME280;22738;45.560;9.434;2023-02-11T02:47:41;101832.69;;;-1.29;100.00
36788;BME280;22738;45.560;9.434;2023-02-11T03:01:56;101816.31;;;-1.47;100.00
36788;BME280;22738;45.560;9.434;2023-02-11T03:08:42;101810.28;;;-1.52;100.00
36788;BME280;22738;45.560;9.434;2023-02-11T03:15:27;101816.88;;;-1.63;100.00
36788;BME280;22738;45.560;9.434;2023-02-11T03:22:17;101814.38;;;-1.61;100.00
36788;BME280;22738;45.560;9.434;2023-02-11T03:29:06;101804.13;;;-1.66;100.00
36788;BME280;22738;45.560;9.434;2023-02-11T03:35:53;101794.88;;;-1.64;100.00
36788;BME280;22738;45.560;9.434;2023-02-11T03:42:43;101793.22;;;-1.59;100.00
36788;BME280;22738;45.560;9.434;2023-02-11T03:49:27;101787.31;;;-1.59;100.00
36788;BME280;22738;45.560;9.434;2023-02-11T03:56:12;101773.69;;;-1.61;100.00
36788;BME280;22738;45.560;9.434;2023-02-11T04:02:55;101777.13;;;-2.07;100.00
36788;BME280;22738;45.560;9.434;2023-02-11T04:09:36;101778.75;;;-2.09;100.00
36788;BME280;22738;45.560;9.434;2023-02-11T04:16:17;101783.22;;;-1.97;100.00
36788;BME280;22738;45.560;9.434;2023-02-11T04:22:58;101773.22;;;-1.90;100.00
36788;BME280;22738;45.560;9.434;2023-02-11T04:29:39;101774.06;;;-1.91;100.00
36788;BME280;22738;45.560;9.434;2023-02-11T04:36:20;101767.25;;;-1.92;100.00
36788;BME280;22738;45.560;9.434;2023-02-11T04:43:01;101756.38;;;-1.85;100.00
36788;BME280;22738;45.560;9.434;2023-02-11T04:49:42;101753.13;;;-1.75;100.00
36788;BME280;22738;45.560;9.434;2023-02-11T04:56:23;101760.25;;;-2.05;100.00
36788;BME280;22738;45.560;9.434;2023-02-11T05:03:04;101750.72;;;-2.15;100.00
36788;BME280;22738;45.560;9.434;2023-02-11T05:09:45;101756.22;;;-2.37;100.00
36788;BME280;22738;45.560;9.434;2023-02-11T05:16:26;101758.44;;;-2.54;100.00
36788;BME280;22738;45.560;9.434;2023-02-11T05:23:09;101774.78;;;-2.41;100.00
36788;BME280;22738;45.560;9.434;2023-02-11T05:29:50;101768.22;;;-2.30;100.00
36788;BME280;22738;45.560;9.434;2023-02-11T05:36:32;101766.56;;;-2.28;100.00
36788;BME280;22738;45.560;9.434;2023-02-11T05:43:13;101757.47;;;-2.17;100.00
36788;BME280;22738;45.560;9.434;2023-02-11T05:49:54;101749.19;;;-2.07;100.00
36788;BME280;22738;45.560;9.434;2023-02-11T05:56:35;101745.78;;;-2.07;100.00
36788;BME280;22738;45.560;9.434;2023-02-11T06:03:16;101736.44;;;-2.55;100.00
36788;BME280;22738;45.560;9.434;2023-02-11T06:09:57;101729.00;;;-2.44;100.00
36788;BME280;22738;45.560;9.434;2023-02-11T06:16:38;101726.00;;;-2.25;100.00
36788;BME280;22738;45.560;9.434;2023-02-11T06:23:20;101735.56;;;-2.55;100.00
36788;BME280;22738;45.560;9.434;2023-02-11T06:30:02;101733.91;;;-2.53;100.00
36788;BME280;22738;45.560;9.434;2023-02-11T06:36:43;101722.47;;;-2.32;100.00
36788;BME280;22738;45.560;9.434;2023-02-11T06:43:26;101703.94;;;-2.28;100.00
36788;BME280;22738;45.560;9.434;2023-02-11T06:50:11;101707.47;;;-2.18;100.00
36788;BME280;22738;45.560;9.434;2023-02-11T06:56:52;101716.22;;;-2.04;100.00
36788;BME280;22738;45.560;9.434;2023-02-11T07:03:38;101718.03;;;-1.97;100.00
36788;BME280;22738;45.560;9.434;2023-02-11T07:10:19;101737.88;;;-1.76;100.00
36788;BME280;22738;45.560;9.434;2023-02-11T07:17:00;101744.19;;;-1.52;100.00
36788;BME280;22738;45.560;9.434;2023-02-11T07:23:42;101736.84;;;-1.36;100.00
36788;BME280;22738;45.560;9.434;2023-02-11T07:30:23;101739.03;;;-1.01;100.00
36788;BME280;22738;45.560;9.434;2023-02-11T07:37:04;101748.84;;;-0.65;100.00
36788;BME280;22738;45.560;9.434;2023-02-11T07:43:45;101747.56;;;-0.30;100.00
36788;BME280;22738;45.560;9.434;2023-02-11T07:50:28;101753.13;;;0.16;100.00
36788;BME280;22738;45.560;9.434;2023-02-11T07:57:09;101749.56;;;1.08;100.00
36788;BME280;22738;45.560;9.434;2023-02-11T08:03:50;101749.66;;;3.70;100.00
36788;BME280;22738;45.560;9.434;2023-02-11T08:10:31;101751.31;;;8.43;88.76
36788;BME280;22738;45.560;9.434;2023-02-11T08:17:12;101761.63;;;10.29;67.86
36788;BME280;22738;45.560;9.434;2023-02-11T08:23:54;101761.47;;;11.10;60.68
36788;BME280;22738;45.560;9.434;2023-02-11T08:30:35;101772.38;;;12.34;52.97
36788;BME280;22738;45.560;9.434;2023-02-11T08:37:17;101774.06;;;12.35;52.30
36788;BME280;22738;45.560;9.434;2023-02-11T08:43:58;101784.03;;;13.28;48.83
36788;BME280;22738;45.560;9.434;2023-02-11T08:50:40;101783.91;;;14.43;45.61
36788;BME280;22738;45.560;9.434;2023-02-11T08:57:21;101780.13;;;15.01;45.23
36788;BME280;22738;45.560;9.434;2023-02-11T09:04:02;101785.38;;;13.75;46.27
36788;BME280;22738;45.560;9.434;2023-02-11T09:10:43;101781.94;;;12.96;48.34
36788;BME280;22738;45.560;9.434;2023-02-11T09:17:25;101765.53;;;11.40;55.65
36788;BME280;22738;45.560;9.434;2023-02-11T09:24:08;101773.41;;;9.82;67.85
36788;BME280;22738;45.560;9.434;2023-02-11T09:30:51;101762.84;;;9.59;64.19
36788;BME280;22738;45.560;9.434;2023-02-11T09:37:32;101754.72;;;8.79;73.05
36788;BME280;22738;45.560;9.434;2023-02-11T09:44:22;101754.81;;;8.02;76.97
36788;BME280;22738;45.560;9.434;2023-02-11T09:51:15;101751.19;;;8.83;75.94
36788;BME280;22738;45.560;9.434;2023-02-11T09:58:01;101769.78;;;8.63;74.66
36788;BME280;22738;45.560;9.434;2023-02-11T10:05:01;101764.97;;;8.48;78.55
36788;BME280;22738;45.560;9.434;2023-02-11T10:19:12;101788.19;;;9.17;77.26
36788;BME280;22738;45.560;9.434;2023-02-11T10:25:59;101784.88;;;8.44;76.28
36788;BME280;22738;45.560;9.434;2023-02-11T10:32:45;101769.56;;;8.71;66.08
36788;BME280;22738;45.560;9.434;2023-02-11T10:39:28;101763.06;;;9.22;62.75
36788;BME280;22738;45.560;9.434;2023-02-11T10:46:17;101743.06;;;9.58;59.83
36788;BME280;22738;45.560;9.434;2023-02-11T10:53:31;101738.53;;;9.64;55.50
36788;BME280;22738;45.560;9.434;2023-02-11T11:07:31;101734.34;;;10.43;52.93
36788;BME280;22738;45.560;9.434;2023-02-11T11:14:18;101731.56;;;9.66;54.02
36788;BME280;22738;45.560;9.434;2023-02-11T11:21:02;101703.84;;;9.97;55.09
36788;BME280;22738;45.560;9.434;2023-02-11T11:27:50;101710.34;;;10.11;55.37
36788;BME280;22738;45.560;9.434;2023-02-11T11:34:35;101693.19;;;10.06;53.98
36788;BME280;22738;45.560;9.434;2023-02-11T11:41:27;101690.59;;;10.06;55.05
36788;BME280;22738;45.560;9.434;2023-02-11T11:48:18;101693.34;;;10.02;55.57
36788;BME280;22738;45.560;9.434;2023-02-11T11:55:25;101685.00;;;9.37;58.52
36788;BME280;22738;45.560;9.434;2023-02-11T12:09:41;101654.25;;;9.26;65.01
36788;BME280;22738;45.560;9.434;2023-02-11T12:38:37;101643.06;;;9.26;55.99
36788;BME280;22738;45.560;9.434;2023-02-11T13:06:39;101615.00;;;9.68;50.89
36788;BME280;22738;45.560;9.434;2023-02-11T13:13:46;101593.16;;;9.76;49.02
36788;BME280;22738;45.560;9.434;2023-02-11T13:20:54;101583.78;;;9.98;47.14
36788;BME280;22738;45.560;9.434;2023-02-11T13:48:12;101566.66;;;9.94;44.89
36788;BME280;22738;45.560;9.434;2023-02-11T13:55:06;101556.09;;;10.00;47.08
36788;BME280;22738;45.560;9.434;2023-02-11T14:16:13;101532.97;;;10.21;49.03
36788;BME280;22738;45.560;9.434;2023-02-11T14:22:55;101523.72;;;10.14;49.40
36788;BME280;22738;45.560;9.434;2023-02-11T14:36:52;101519.31;;;10.16;50.72
36788;BME280;22738;45.560;9.434;2023-02-11T14:43:40;101514.13;;;10.16;51.22
36788;BME280;22738;45.560;9.434;2023-02-11T14:50:27;101515.94;;;10.14;49.26
36788;BME280;22738;45.560;9.434;2023-02-11T14:57:15;101505.56;;;10.14;49.30
36788;BME280;22738;45.560;9.434;2023-02-11T15:03:57;101506.72;;;10.05;49.53
36788;BME280;22738;45.560;9.434;2023-02-11T15:10:41;101511.16;;;10.01;49.98
36788;BME280;22738;45.560;9.434;2023-02-11T15:17:27;101508.72;;;9.97;50.75
36788;BME280;22738;45.560;9.434;2023-02-11T15:24:31;101502.84;;;9.92;49.73
36788;BME280;22738;45.560;9.434;2023-02-11T15:31:15;101496.13;;;9.86;49.50
36788;BME280;22738;45.560;9.434;2023-02-11T15:37:58;101484.28;;;9.79;48.88
36788;BME280;22738;45.560;9.434;2023-02-11T15:44:39;101485.38;;;9.72;48.99
36788;BME280;22738;45.560;9.434;2023-02-11T15:51:32;101485.03;;;9.58;49.37
36788;BME280;22738;45.560;9.434;2023-02-11T15:58:15;101472.09;;;9.58;49.03
36788;BME280;22738;45.560;9.434;2023-02-11T16:05:05;101459.47;;;9.48;49.14
36788;BME280;22738;45.560;9.434;2023-02-11T16:18:37;101466.69;;;9.12;49.95
36788;BME280;22738;45.560;9.434;2023-02-11T16:25:20;101460.25;;;8.97;49.69
36788;BME280;22738;45.560;9.434;2023-02-11T16:32:06;101455.91;;;8.70;51.02
36788;BME280;22738;45.560;9.434;2023-02-11T16:38:48;101456.44;;;8.53;51.19
36788;BME280;22738;45.560;9.434;2023-02-11T16:45:36;101456.34;;;8.27;51.82
36788;BME280;22738;45.560;9.434;2023-02-11T16:52:18;101456.38;;;7.93;54.33
36788;BME280;22738;45.560;9.434;2023-02-11T16:59:00;101450.16;;;7.70;56.14
36788;BME280;22738;45.560;9.434;2023-02-11T17:05:42;101460.44;;;7.36;65.76
36788;BME280;22738;45.560;9.434;2023-02-11T17:12:24;101457.50;;;7.17;75.96
36788;BME280;22738;45.560;9.434;2023-02-11T17:19:05;101461.66;;;6.86;76.44
36788;BME280;22738;45.560;9.434;2023-02-11T17:25:53;101468.22;;;6.61;87.25
36788;BME280;22738;45.560;9.434;2023-02-11T17:32:35;101468.09;;;6.26;95.82
36788;BME280;22738;45.560;9.434;2023-02-11T17:39:16;101478.41;;;6.26;94.42
36788;BME280;22738;45.560;9.434;2023-02-11T17:45:59;101478.94;;;5.99;100.00
36788;BME280;22738;45.560;9.434;2023-02-11T17:52:41;101486.50;;;5.57;100.00
36788;BME280;22738;45.560;9.434;2023-02-11T17:59:21;101478.22;;;5.39;100.00
36788;BME280;22738;45.560;9.434;2023-02-11T18:06:04;101481.19;;;5.15;100.00
36788;BME280;22738;45.560;9.434;2023-02-11T18:12:46;101471.25;;;4.92;100.00
36788;BME280;22738;45.560;9.434;2023-02-11T18:19:27;101465.44;;;4.81;100.00
36788;BME280;22738;45.560;9.434;2023-02-11T18:26:13;101460.41;;;4.72;100.00
36788;BME280;22738;45.560;9.434;2023-02-11T18:32:55;101458.06;;;4.55;100.00
36788;BME280;22738;45.560;9.434;2023-02-11T18:39:37;101453.75;;;4.59;100.00
36788;BME280;22738;45.560;9.434;2023-02-11T18:46:18;101458.94;;;4.53;100.00
36788;BME280;22738;45.560;9.434;2023-02-11T18:52:59;101466.94;;;4.30;100.00
36788;BME280;22738;45.560;9.434;2023-02-11T18:59:40;101467.31;;;3.98;100.00
36788;BME280;22738;45.560;9.434;2023-02-11T19:06:26;101455.06;;;4.21;100.00
36788;BME280;22738;45.560;9.434;2023-02-11T19:13:08;101471.56;;;4.69;100.00
36788;BME280;22738;45.560;9.434;2023-02-11T19:19:49;101474.69;;;4.25;100.00
36788;BME280;22738;45.560;9.434;2023-02-11T19:26:35;101478.41;;;4.00;100.00
36788;BME280;22738;45.560;9.434;2023-02-11T19:33:16;101481.28;;;3.69;100.00
36788;BME280;22738;45.560;9.434;2023-02-11T19:39:57;101485.72;;;3.50;100.00
36788;BME280;22738;45.560;9.434;2023-02-11T19:46:38;101459.31;;;3.42;100.00
36788;BME280;22738;45.560;9.434;2023-02-11T19:53:20;101463.75;;;3.22;100.00
36788;BME280;22738;45.560;9.434;2023-02-11T20:00:03;101486.06;;;3.05;100.00
36788;BME280;22738;45.560;9.434;2023-02-11T20:06:52;101471.63;;;2.95;100.00
36788;BME280;22738;45.560;9.434;2023-02-11T20:13:33;101462.16;;;3.06;100.00
36788;BME280;22738;45.560;9.434;2023-02-11T20:20:14;101467.28;;;3.06;100.00
36788;BME280;22738;45.560;9.434;2023-02-11T20:26:55;101471.59;;;3.01;100.00
36788;BME280;22738;45.560;9.434;2023-02-11T20:33:37;101485.44;;;2.69;100.00
36788;BME280;22738;45.560;9.434;2023-02-11T20:40:18;101483.00;;;2.45;100.00
36788;BME280;22738;45.560;9.434;2023-02-11T20:46:59;101472.72;;;2.54;100.00
36788;BME280;22738;45.560;9.434;2023-02-11T20:53:42;101481.13;;;2.76;100.00
36788;BME280;22738;45.560;9.434;2023-02-11T21:00:23;101482.81;;;2.78;100.00
36788;BME280;22738;45.560;9.434;2023-02-11T21:07:04;101479.47;;;2.67;100.00
36788;BME280;22738;45.560;9.434;2023-02-11T21:13:46;101482.03;;;2.64;100.00
36788;BME280;22738;45.560;9.434;2023-02-11T21:20:28;101488.00;;;2.66;100.00
36788;BME280;22738;45.560;9.434;2023-02-11T21:27:09;101476.91;;;2.64;100.00
36788;BME280;22738;45.560;9.434;2023-02-11T21:33:51;101479.56;;;2.43;100.00
36788;BME280;22738;45.560;9.434;2023-02-11T21:40:34;101465.97;;;2.32;100.00
36788;BME280;22738;45.560;9.434;2023-02-11T21:47:15;101473.75;;;2.05;100.00
36788;BME280;22738;45.560;9.434;2023-02-11T21:53:57;101466.94;;;2.08;100.00
36788;BME280;22738;45.560;9.434;2023-02-11T22:00:39;101476.38;;;1.78;100.00
36788;BME280;22738;45.560;9.434;2023-02-11T22:07:20;101482.31;;;1.89;100.00
36788;BME280;22738;45.560;9.434;2023-02-11T22:14:03;101494.22;;;1.94;100.00
36788;BME280;22738;45.560;9.434;2023-02-11T22:20:44;101477.22;;;1.77;100.00
36788;BME280;22738;45.560;9.434;2023-02-11T22:27:25;101479.78;;;1.77;100.00
36788;BME280;22738;45.560;9.434;2023-02-11T22:34:06;101473.81;;;1.76;100.00
36788;BME280;22738;45.560;9.434;2023-02-11T22:40:47;101458.47;;;1.73;100.00
36788;BME280;22738;45.560;9.434;2023-02-11T22:47:28;101470.44;;;1.56;100.00
36788;BME280;22738;45.560;9.434;2023-02-11T22:54:12;101450.84;;;1.63;100.00
36788;BME280;22738;45.560;9.434;2023-02-11T23:00:53;101455.97;;;1.66;100.00
36788;BME280;22738;45.560;9.434;2023-02-11T23:07:35;101459.34;;;1.72;100.00
36788;BME280;22738;45.560;9.434;2023-02-11T23:14:16;101459.28;;;1.89;100.00
36788;BME280;22738;45.560;9.434;2023-02-11T23:21:09;101461.03;;;1.78;100.00
36788;BME280;22738;45.560;9.434;2023-02-11T23:27:51;101456.78;;;1.72;100.00
36788;BME280;22738;45.560;9.434;2023-02-11T23:34:32;101441.47;;;1.53;100.00
36788;BME280;22738;45.560;9.434;2023-02-11T23:41:14;101444.00;;;1.74;100.00
36788;BME280;22738;45.560;9.434;2023-02-11T23:47:55;101438.81;;;2.04;100.00
36788;BME280;22738;45.560;9.434;2023-02-11T23:54:36;101436.19;;;2.22;100.00
